Airfield :
LOGIN :

Register | Disclaimer

   EN    FR    IT 

 










Legend :    VFR   Marginal VFR   IFR   Intensive IFR   Very Intensive IFR
Visi :
Ceiling :
>= 8 km
>= 3000ft
5 to 8 km
1000 to 3000 ft
1500m to 5 km
500 to 1000 ft
800 to 1500m
200 to 500 ft
< 800m
< 200 ft
Symbols :   Thunderstorms  Fog  Heavy snow  Heavy precipitations  Wind > 20 kt
SIGMETs :     Misc.  Thunderstorms  Icing  Turbulence  Mountain Waves  Volcanic Ashes







- Airport Elevation : 29 ft
- IATA code : SVG


ENZV - Sola

CURRENT METAR :
  • 230450Z 17023KT 9000 BKN015 11/08 Q0975

EXPIRED METARs :
  • 230350Z 17023KT 8000 -RA BKN016 11/08 Q0976
  • 230250Z 18021G32KT 9000 RA BKN006 10/09 Q0976

TAF TAF ENZV
Valid from the 23 at 00:00 until the 24 at 00:00 UTC


2300/2324 18020KT 9999 -RA SCT007 BKN015
TEMPO 2300/2312 19025G35KT 3000 RADZ BR BKN005
BECMG 2312/2315 24018G28KT
TEMPO 2312/2324 4000 SHRAGS BKN012CB
No reported NOTAMs for that airfield.
5 SIGMETs reported for the Norway FIR (ENOR) :
 
Severe turbulence
ENSV SIGMET B01 VALID 230300/230600 ENVV
ENOR NORWAY FIR OCNL SEV TURB FCST WI N5800 E00730 - N5830 E00530 - N6000 E00500 - N6000 E00730 - N5800 E00730 SFC/FL100 STNR NC=
Severe mountain waves
ENOS SIGMET A03 VALID 230500/230900 ENMI
ENOR NORWAY FIR OCNL SEV MTW FCST WI N6015 E00730 - N6200 E00730 - N6200 E01030 - N6015 E00730 SFC/FL160 STNR NC=
Severe icing with freezing rain
ENOS SIGMET A02 VALID 230400/230800 ENMI
ENOR NORWAY FIR OCNL SEV ICE (FZRA) FCST WI N6130 E01245 - N6000 E01000 - N5930 E00730 - N6030 E00730 - N6200 E01000 - N6200 E01215 - N6130 E01245 SFC/FL050 MOV N 10KT WKN=
Severe mountain waves
ENBD SIGMET D02 VALID 230400/230800 ENVN
ENOR NORWAY FIR SEV MTW FCST WI N6500 E01320 - N6500 E01040 - N6800 E01500 - N7000 E01800 - N7000 E02200 - N6700 E01800 - N6500 E01320 SFC/FL150 STNR NC=
Severe mountain waves
ENBD SIGMET C02 VALID 230500/230900 ENVV
ENOR NORWAY FIR OCNL SEV MTW FCST WI N6500 E01030 - N6500 E01410 - N6300 E01200 - N6230 E01030 - N6230 E00830 - N6300 E01000 - N6500 E01030 SFC/FL100 STNR NC=



MET'MAP, your aeronautical weather chart ! - Copyright ORBIFLY December 2007 - Disclaimer

ORBIFLY MET'MAP TEAM :

Programming & Development : Alexandra Zaïnal
Concept & Development : Baudouin d'Aumeries
Co-Development & Prog : Marc-Olivier Méhu
Technical & hardware support : Manuel Goepfert

Contact : metmap@orbifly.com




SOURCES & CREDITS :

   NOAA